sensor_id;sensor_type;location;lat;lon;timestamp;P1;P2;P0
50587;PMS7003;70782;50.514;30.816;2023-12-20T00:00:02;24.60;24.40;16.60
50587;PMS7003;70782;50.514;30.816;2023-12-20T00:01:06;25.50;24.30;17.50
50587;PMS7003;70782;50.514;30.816;2023-12-20T00:02:08;26.40;25.50;17.00
50587;PMS7003;70782;50.514;30.816;2023-12-20T00:03:11;22.10;20.00;15.90
50587;PMS7003;70782;50.514;30.816;2023-12-20T00:04:13;26.40;23.00;16.80
50587;PMS7003;70782;50.514;30.816;2023-12-20T00:05:16;28.50;25.80;17.20
50587;PMS7003;70782;50.514;30.816;2023-12-20T00:06:20;26.90;24.30;15.40
50587;PMS7003;70782;50.514;30.816;2023-12-20T00:07:23;25.30;24.30;17.30
50587;PMS7003;70782;50.514;30.816;2023-12-20T00:08:25;23.00;23.00;15.70
50587;PMS7003;70782;50.514;30.816;2023-12-20T00:09:27;24.60;22.60;15.60
50587;PMS7003;70782;50.514;30.816;2023-12-20T00:10:30;22.60;21.60;15.40
50587;PMS7003;70782;50.514;30.816;2023-12-20T00:11:32;23.70;23.10;16.40
50587;PMS7003;70782;50.514;30.816;2023-12-20T00:12:35;25.50;22.00;15.40
50587;PMS7003;70782;50.514;30.816;2023-12-20T00:13:38;24.50;23.80;15.50
50587;PMS7003;70782;50.514;30.816;2023-12-20T00:14:40;24.90;22.90;14.80
50587;PMS7003;70782;50.514;30.816;2023-12-20T00:15:42;21.50;20.70;14.90
50587;PMS7003;70782;50.514;30.816;2023-12-20T00:16:45;21.10;20.50;15.70
50587;PMS7003;70782;50.514;30.816;2023-12-20T00:17:47;24.00;23.60;15.50
50587;PMS7003;70782;50.514;30.816;2023-12-20T00:18:50;25.36;23.73;15.91
50587;PMS7003;70782;50.514;30.816;2023-12-20T00:19:53;18.30;17.60;13.20
50587;PMS7003;70782;50.514;30.816;2023-12-20T00:20:55;19.60;18.60;11.70
50587;PMS7003;70782;50.514;30.816;2023-12-20T00:21:58;23.20;21.70;14.70
50587;PMS7003;70782;50.514;30.816;2023-12-20T00:23:00;23.10;20.40;15.00
50587;PMS7003;70782;50.514;30.816;2023-12-20T00:24:03;25.80;21.70;14.70
50587;PMS7003;70782;50.514;30.816;2023-12-20T00:25:06;20.50;18.60;13.10
50587;PMS7003;70782;50.514;30.816;2023-12-20T00:26:10;20.70;20.00;14.90
50587;PMS7003;70782;50.514;30.816;2023-12-20T00:27:13;20.90;19.80;14.60
50587;PMS7003;70782;50.514;30.816;2023-12-20T00:28:15;24.50;23.90;15.80
50587;PMS7003;70782;50.514;30.816;2023-12-20T00:29:18;19.10;19.00;13.60
50587;PMS7003;70782;50.514;30.816;2023-12-20T00:30:22;22.30;22.30;14.50
50587;PMS7003;70782;50.514;30.816;2023-12-20T00:31:25;24.60;21.90;15.80
50587;PMS7003;70782;50.514;30.816;2023-12-20T00:32:27;20.90;20.20;12.60
50587;PMS7003;70782;50.514;30.816;2023-12-20T00:33:30;24.50;22.70;15.20
50587;PMS7003;70782;50.514;30.816;2023-12-20T00:34:32;26.00;23.80;14.70
50587;PMS7003;70782;50.514;30.816;2023-12-20T00:35:35;28.20;26.20;17.90
50587;PMS7003;70782;50.514;30.816;2023-12-20T00:36:37;26.40;24.70;16.70
50587;PMS7003;70782;50.514;30.816;2023-12-20T00:37:40;22.20;21.20;14.90
50587;PMS7003;70782;50.514;30.816;2023-12-20T00:38:42;23.40;23.20;15.00
50587;PMS7003;70782;50.514;30.816;2023-12-20T00:39:45;25.60;22.60;16.00
50587;PMS7003;70782;50.514;30.816;2023-12-20T00:40:47;28.40;26.60;17.40
50587;PMS7003;70782;50.514;30.816;2023-12-20T00:41:50;25.10;22.70;16.70
50587;PMS7003;70782;50.514;30.816;2023-12-20T00:42:52;22.10;21.70;15.10
50587;PMS7003;70782;50.514;30.816;2023-12-20T00:43:55;22.20;20.90;14.80
50587;PMS7003;70782;50.514;30.816;2023-12-20T00:44:58;26.00;23.90;14.60
50587;PMS7003;70782;50.514;30.816;2023-12-20T00:46:01;25.80;23.90;16.20
50587;PMS7003;70782;50.514;30.816;2023-12-20T00:47:03;25.80;24.40;15.90
50587;PMS7003;70782;50.514;30.816;2023-12-20T00:48:06;24.50;24.40;15.40
50587;PMS7003;70782;50.514;30.816;2023-12-20T00:49:09;25.70;25.50;17.30
50587;PMS7003;70782;50.514;30.816;2023-12-20T00:50:12;25.30;23.20;15.40
50587;PMS7003;70782;50.514;30.816;2023-12-20T00:51:15;26.30;22.20;15.80
50587;PMS7003;70782;50.514;30.816;2023-12-20T00:52:18;34.20;32.10;21.40
50587;PMS7003;70782;50.514;30.816;2023-12-20T00:53:20;35.00;30.40;20.50
50587;PMS7003;70782;50.514;30.816;2023-12-20T00:54:23;24.40;24.00;15.00
50587;PMS7003;70782;50.514;30.816;2023-12-20T00:55:25;28.30;26.60;17.80
50587;PMS7003;70782;50.514;30.816;2023-12-20T00:56:28;26.30;25.00;15.80
50587;PMS7003;70782;50.514;30.816;2023-12-20T00:57:30;28.20;27.30;18.10
50587;PMS7003;70782;50.514;30.816;2023-12-20T00:58:32;26.30;24.50;16.20
50587;PMS7003;70782;50.514;30.816;2023-12-20T00:59:35;29.10;26.80;17.00
50587;PMS7003;70782;50.514;30.816;2023-12-20T01:00:37;28.40;25.00;16.00
50587;PMS7003;70782;50.514;30.816;2023-12-20T01:01:42;25.60;24.30;17.00
50587;PMS7003;70782;50.514;30.816;2023-12-20T01:02:44;23.80;23.40;15.50
50587;PMS7003;70782;50.514;30.816;2023-12-20T01:03:47;24.20;22.60;15.10
50587;PMS7003;70782;50.514;30.816;2023-12-20T01:04:49;8.60;6.20;0.60
50587;PMS7003;70782;50.514;30.816;2023-12-20T01:05:52;21.60;20.80;15.40
50587;PMS7003;70782;50.514;30.816;2023-12-20T01:06:54;25.90;22.70;15.90
50587;PMS7003;70782;50.514;30.816;2023-12-20T01:07:57;23.10;20.80;15.00
50587;PMS7003;70782;50.514;30.816;2023-12-20T01:08:59;24.20;20.60;14.30
50587;PMS7003;70782;50.514;30.816;2023-12-20T01:10:02;20.80;19.70;13.80
50587;PMS7003;70782;50.514;30.816;2023-12-20T01:11:05;21.10;20.50;14.10
50587;PMS7003;70782;50.514;30.816;2023-12-20T01:12:08;5.60;5.30;1.10
50587;PMS7003;70782;50.514;30.816;2023-12-20T01:13:10;24.30;22.90;15.60
50587;PMS7003;70782;50.514;30.816;2023-12-20T01:14:13;23.80;22.70;15.40
50587;PMS7003;70782;50.514;30.816;2023-12-20T01:15:15;25.10;23.70;15.70
50587;PMS7003;70782;50.514;30.816;2023-12-20T01:16:18;27.40;24.30;16.50
50587;PMS7003;70782;50.514;30.816;2023-12-20T01:17:20;23.50;22.90;16.00
50587;PMS7003;70782;50.514;30.816;2023-12-20T01:18:23;27.60;26.20;16.80
50587;PMS7003;70782;50.514;30.816;2023-12-20T01:19:25;27.00;23.70;17.00
50587;PMS7003;70782;50.514;30.816;2023-12-20T01:20:29;31.40;26.90;17.20
50587;PMS7003;70782;50.514;30.816;2023-12-20T01:21:31;26.20;25.30;16.70
50587;PMS7003;70782;50.514;30.816;2023-12-20T01:22:33;21.90;21.50;14.40
50587;PMS7003;70782;50.514;30.816;2023-12-20T01:23:36;25.20;21.50;13.00
50587;PMS7003;70782;50.514;30.816;2023-12-20T01:24:38;25.70;23.40;15.00
50587;PMS7003;70782;50.514;30.816;2023-12-20T01:25:41;22.70;21.50;15.10
50587;PMS7003;70782;50.514;30.816;2023-12-20T01:26:43;22.80;21.40;14.80
50587;PMS7003;70782;50.514;30.816;2023-12-20T01:27:45;23.60;21.70;15.80
50587;PMS7003;70782;50.514;30.816;2023-12-20T01:28:48;7.73;6.27;0.73
50587;PMS7003;70782;50.514;30.816;2023-12-20T01:29:51;22.60;20.00;14.60
50587;PMS7003;70782;50.514;30.816;2023-12-20T01:30:53;23.80;22.70;14.90
50587;PMS7003;70782;50.514;30.816;2023-12-20T01:31:56;23.20;21.10;13.70
50587;PMS7003;70782;50.514;30.816;2023-12-20T01:32:59;23.33;21.67;13.67
50587;PMS7003;70782;50.514;30.816;2023-12-20T01:34:02;21.50;20.70;14.20
50587;PMS7003;70782;50.514;30.816;2023-12-20T01:35:04;21.80;21.00;13.80
50587;PMS7003;70782;50.514;30.816;2023-12-20T01:36:08;24.60;22.30;14.60
50587;PMS7003;70782;50.514;30.816;2023-12-20T01:37:11;23.70;21.40;14.40
50587;PMS7003;70782;50.514;30.816;2023-12-20T01:38:13;24.10;20.80;14.60
50587;PMS7003;70782;50.514;30.816;2023-12-20T01:39:16;26.40;21.90;14.90
50587;PMS7003;70782;50.514;30.816;2023-12-20T01:40:22;23.00;21.80;14.70
50587;PMS7003;70782;50.514;30.816;2023-12-20T01:41:25;24.55;21.27;15.00
50587;PMS7003;70782;50.514;30.816;2023-12-20T01:42:27;22.90;20.90;14.60
50587;PMS7003;70782;50.514;30.816;2023-12-20T01:43:30;21.10;20.60;15.00
50587;PMS7003;70782;50.514;30.816;2023-12-20T01:44:34;23.00;21.80;14.50
50587;PMS7003;70782;50.514;30.816;2023-12-20T01:45:36;21.20;20.70;14.00
50587;PMS7003;70782;50.514;30.816;2023-12-20T01:46:39;25.27;22.09;15.27
50587;PMS7003;70782;50.514;30.816;2023-12-20T01:47:42;22.80;20.20;15.00
50587;PMS7003;70782;50.514;30.816;2023-12-20T01:48:44;24.40;22.80;15.40
50587;PMS7003;70782;50.514;30.816;2023-12-20T01:49:48;26.90;24.20;16.10
50587;PMS7003;70782;50.514;30.816;2023-12-20T01:50:51;21.40;20.50;14.50
50587;PMS7003;70782;50.514;30.816;2023-12-20T01:51:54;22.09;20.09;14.00
50587;PMS7003;70782;50.514;30.816;2023-12-20T01:52:57;24.20;21.60;15.50
50587;PMS7003;70782;50.514;30.816;2023-12-20T01:54:02;23.60;21.80;14.40
50587;PMS7003;70782;50.514;30.816;2023-12-20T01:55:05;23.20;21.70;15.10
50587;PMS7003;70782;50.514;30.816;2023-12-20T01:56:08;28.90;26.30;16.60
50587;PMS7003;70782;50.514;30.816;2023-12-20T01:57:11;27.50;26.10;17.30
50587;PMS7003;70782;50.514;30.816;2023-12-20T01:58:14;27.60;22.70;15.50
50587;PMS7003;70782;50.514;30.816;2023-12-20T01:59:17;24.40;23.50;15.40
50587;PMS7003;70782;50.514;30.816;2023-12-20T02:00:21;23.10;20.90;14.00
50587;PMS7003;70782;50.514;30.816;2023-12-20T02:01:24;22.80;21.30;15.00
50587;PMS7003;70782;50.514;30.816;2023-12-20T02:02:27;21.70;21.70;15.00
50587;PMS7003;70782;50.514;30.816;2023-12-20T02:03:30;20.10;18.90;13.00
50587;PMS7003;70782;50.514;30.816;2023-12-20T02:04:32;23.30;21.10;13.50
50587;PMS7003;70782;50.514;30.816;2023-12-20T02:05:35;20.10;18.60;12.80
50587;PMS7003;70782;50.514;30.816;2023-12-20T02:06:38;20.10;18.60;13.70
50587;PMS7003;70782;50.514;30.816;2023-12-20T02:07:42;21.20;19.30;13.40
50587;PMS7003;70782;50.514;30.816;2023-12-20T02:08:45;19.70;18.30;14.40
50587;PMS7003;70782;50.514;30.816;2023-12-20T02:09:48;20.27;20.27;13.64
50587;PMS7003;70782;50.514;30.816;2023-12-20T02:10:50;21.40;19.00;13.10
50587;PMS7003;70782;50.514;30.816;2023-12-20T02:11:53;17.90;17.90;13.00
50587;PMS7003;70782;50.514;30.816;2023-12-20T02:12:56;20.40;18.70;13.50
50587;PMS7003;70782;50.514;30.816;2023-12-20T02:13:58;20.10;19.80;11.40
50587;PMS7003;70782;50.514;30.816;2023-12-20T02:15:01;21.80;20.30;13.90
50587;PMS7003;70782;50.514;30.816;2023-12-20T02:16:04;20.10;18.50;12.40
50587;PMS7003;70782;50.514;30.816;2023-12-20T02:17:06;21.30;20.50;13.80
50587;PMS7003;70782;50.514;30.816;2023-12-20T02:18:08;21.00;18.10;13.20
50587;PMS7003;70782;50.514;30.816;2023-12-20T02:19:14;18.70;17.70;11.40
50587;PMS7003;70782;50.514;30.816;2023-12-20T02:20:18;18.00;17.30;12.80
50587;PMS7003;70782;50.514;30.816;2023-12-20T02:21:25;19.90;19.20;13.30
50587;PMS7003;70782;50.514;30.816;2023-12-20T02:22:27;18.50;17.70;12.80
50587;PMS7003;70782;50.514;30.816;2023-12-20T02:23:30;17.00;17.00;12.50
50587;PMS7003;70782;50.514;30.816;2023-12-20T02:24:32;17.90;17.10;12.20
50587;PMS7003;70782;50.514;30.816;2023-12-20T02:25:34;14.10;14.10;6.80
50587;PMS7003;70782;50.514;30.816;2023-12-20T02:26:37;19.60;18.50;10.20
50587;PMS7003;70782;50.514;30.816;2023-12-20T02:27:40;21.70;21.10;14.90
50587;PMS7003;70782;50.514;30.816;2023-12-20T02:28:42;24.45;21.36;14.27
50587;PMS7003;70782;50.514;30.816;2023-12-20T02:29:46;21.50;21.40;15.20
50587;PMS7003;70782;50.514;30.816;2023-12-20T02:30:49;18.70;18.40;13.90
50587;PMS7003;70782;50.514;30.816;2023-12-20T02:31:52;23.90;21.20;14.10
50587;PMS7003;70782;50.514;30.816;2023-12-20T02:32:55;22.64;22.36;14.55
50587;PMS7003;70782;50.514;30.816;2023-12-20T02:33:58;24.20;21.50;14.60
50587;PMS7003;70782;50.514;30.816;2023-12-20T02:35:00;16.80;15.70;12.50
50587;PMS7003;70782;50.514;30.816;2023-12-20T02:36:04;20.45;19.27;14.73
50587;PMS7003;70782;50.514;30.816;2023-12-20T02:37:06;19.60;19.30;13.30
50587;PMS7003;70782;50.514;30.816;2023-12-20T02:39:31;21.80;18.50;13.40
50587;PMS7003;70782;50.514;30.816;2023-12-20T02:40:34;21.18;17.82;13.82
50587;PMS7003;70782;50.514;30.816;2023-12-20T02:41:37;20.70;18.60;13.40
50587;PMS7003;70782;50.514;30.816;2023-12-20T02:42:39;18.30;17.50;11.60
50587;PMS7003;70782;50.514;30.816;2023-12-20T02:43:42;19.00;17.40;12.30
50587;PMS7003;70782;50.514;30.816;2023-12-20T02:44:44;16.50;15.90;10.90
50587;PMS7003;70782;50.514;30.816;2023-12-20T02:45:46;22.00;18.10;12.90
50587;PMS7003;70782;50.514;30.816;2023-12-20T02:46:49;20.10;18.80;12.40
50587;PMS7003;70782;50.514;30.816;2023-12-20T02:47:52;17.40;15.80;11.80
50587;PMS7003;70782;50.514;30.816;2023-12-20T02:48:54;17.90;17.90;13.20
50587;PMS7003;70782;50.514;30.816;2023-12-20T02:49:57;18.00;17.00;11.90
50587;PMS7003;70782;50.514;30.816;2023-12-20T02:50:59;18.90;18.40;12.10
50587;PMS7003;70782;50.514;30.816;2023-12-20T02:52:02;18.80;17.70;11.80
50587;PMS7003;70782;50.514;30.816;2023-12-20T02:53:05;16.60;15.90;11.30
50587;PMS7003;70782;50.514;30.816;2023-12-20T02:54:07;16.30;15.60;12.60
50587;PMS7003;70782;50.514;30.816;2023-12-20T02:55:10;17.70;16.50;12.40
50587;PMS7003;70782;50.514;30.816;2023-12-20T02:56:13;18.50;15.60;11.10
50587;PMS7003;70782;50.514;30.816;2023-12-20T02:57:15;15.90;15.80;11.20
50587;PMS7003;70782;50.514;30.816;2023-12-20T02:58:18;19.60;17.40;12.00
50587;PMS7003;70782;50.514;30.816;2023-12-20T02:59:21;17.64;16.91;12.00
50587;PMS7003;70782;50.514;30.816;2023-12-20T03:00:25;19.10;18.90;12.30
50587;PMS7003;70782;50.514;30.816;2023-12-20T03:01:28;19.30;18.30;12.30
50587;PMS7003;70782;50.514;30.816;2023-12-20T03:02:31;23.90;20.10;13.30
50587;PMS7003;70782;50.514;30.816;2023-12-20T03:03:33;19.50;17.90;14.50
50587;PMS7003;70782;50.514;30.816;2023-12-20T03:04:36;13.60;12.50;9.80
50587;PMS7003;70782;50.514;30.816;2023-12-20T03:05:39;21.73;19.91;12.64
50587;PMS7003;70782;50.514;30.816;2023-12-20T03:06:41;18.91;17.27;13.36
50587;PMS7003;70782;50.514;30.816;2023-12-20T03:07:44;22.20;19.90;14.40
50587;PMS7003;70782;50.514;30.816;2023-12-20T03:08:47;25.80;25.60;19.50
50587;PMS7003;70782;50.514;30.816;2023-12-20T03:09:50;19.30;19.00;13.10
50587;PMS7003;70782;50.514;30.816;2023-12-20T03:10:54;18.90;17.40;11.80
50587;PMS7003;70782;50.514;30.816;2023-12-20T03:11:57;20.10;19.30;12.10
50587;PMS7003;70782;50.514;30.816;2023-12-20T03:13:00;18.10;16.50;11.10
50587;PMS7003;70782;50.514;30.816;2023-12-20T03:14:02;14.30;12.80;9.20
50587;PMS7003;70782;50.514;30.816;2023-12-20T03:15:05;16.60;15.70;10.80
50587;PMS7003;70782;50.514;30.816;2023-12-20T03:17:19;16.30;15.30;10.50
50587;PMS7003;70782;50.514;30.816;2023-12-20T03:18:21;16.20;14.40;10.20
50587;PMS7003;70782;50.514;30.816;2023-12-20T03:19:24;13.70;12.70;9.20
50587;PMS7003;70782;50.514;30.816;2023-12-20T03:20:27;14.82;13.73;8.36
50587;PMS7003;70782;50.514;30.816;2023-12-20T03:21:29;15.30;13.10;8.60
50587;PMS7003;70782;50.514;30.816;2023-12-20T03:22:32;11.80;11.50;8.20
50587;PMS7003;70782;50.514;30.816;2023-12-20T03:23:34;13.50;13.50;8.80
50587;PMS7003;70782;50.514;30.816;2023-12-20T03:24:37;14.70;14.00;9.80
50587;PMS7003;70782;50.514;30.816;2023-12-20T03:25:39;12.50;12.50;8.80
50587;PMS7003;70782;50.514;30.816;2023-12-20T03:26:42;10.09;8.55;6.64
50587;PMS7003;70782;50.514;30.816;2023-12-20T03:27:44;14.50;13.20;8.40
50587;PMS7003;70782;50.514;30.816;2023-12-20T03:28:47;16.00;13.10;8.70
50587;PMS7003;70782;50.514;30.816;2023-12-20T03:29:50;17.50;13.80;9.00
50587;PMS7003;70782;50.514;30.816;2023-12-20T03:30:53;14.90;14.60;10.60
50587;PMS7003;70782;50.514;30.816;2023-12-20T03:31:55;19.10;18.00;11.00
50587;PMS7003;70782;50.514;30.816;2023-12-20T03:32:58;18.20;16.60;12.30
50587;PMS7003;70782;50.514;30.816;2023-12-20T03:34:00;15.60;14.80;9.60
50587;PMS7003;70782;50.514;30.816;2023-12-20T03:35:03;1.10;0.40;0.40
50587;PMS7003;70782;50.514;30.816;2023-12-20T03:36:06;13.10;10.00;6.30
50587;PMS7003;70782;50.514;30.816;2023-12-20T03:37:09;14.80;14.80;9.50
50587;PMS7003;70782;50.514;30.816;2023-12-20T03:38:11;15.20;15.20;10.80
50587;PMS7003;70782;50.514;30.816;2023-12-20T03:39:13;16.10;15.20;10.30
50587;PMS7003;70782;50.514;30.816;2023-12-20T03:40:17;16.10;14.40;9.90
50587;PMS7003;70782;50.514;30.816;2023-12-20T03:41:20;15.00;15.00;9.90
50587;PMS7003;70782;50.514;30.816;2023-12-20T03:42:22;12.90;12.90;9.80
50587;PMS7003;70782;50.514;30.816;2023-12-20T03:43:25;15.90;11.90;8.40
50587;PMS7003;70782;50.514;30.816;2023-12-20T03:44:27;14.00;12.60;9.60
50587;PMS7003;70782;50.514;30.816;2023-12-20T03:45:30;13.80;13.20;8.10
50587;PMS7003;70782;50.514;30.816;2023-12-20T03:46:34;11.70;10.90;7.90
50587;PMS7003;70782;50.514;30.816;2023-12-20T03:47:36;12.80;12.80;9.60
50587;PMS7003;70782;50.514;30.816;2023-12-20T03:48:38;13.50;12.90;9.30
50587;PMS7003;70782;50.514;30.816;2023-12-20T03:49:41;14.10;12.80;9.10
50587;PMS7003;70782;50.514;30.816;2023-12-20T03:50:44;15.00;14.30;9.60
50587;PMS7003;70782;50.514;30.816;2023-12-20T03:51:46;15.20;15.00;9.30
50587;PMS7003;70782;50.514;30.816;2023-12-20T03:52:48;16.20;15.00;10.40
50587;PMS7003;70782;50.514;30.816;2023-12-20T03:53:51;16.50;16.20;11.10
50587;PMS7003;70782;50.514;30.816;2023-12-20T03:54:53;16.40;16.40;12.50
50587;PMS7003;70782;50.514;30.816;2023-12-20T03:55:55;17.70;16.60;11.90
50587;PMS7003;70782;50.514;30.816;2023-12-20T03:56:58;11.40;10.50;6.10
50587;PMS7003;70782;50.514;30.816;2023-12-20T03:58:00;15.50;14.90;9.80
50587;PMS7003;70782;50.514;30.816;2023-12-20T03:59:03;3.40;2.30;0.40
50587;PMS7003;70782;50.514;30.816;2023-12-20T04:00:07;14.18;13.73;10.09
50587;PMS7003;70782;50.514;30.816;2023-12-20T04:02:27;15.90;15.90;11.00
50587;PMS7003;70782;50.514;30.816;2023-12-20T04:03:29;16.60;15.80;11.10
50587;PMS7003;70782;50.514;30.816;2023-12-20T04:04:31;15.20;15.20;10.50
50587;PMS7003;70782;50.514;30.816;2023-12-20T04:05:34;16.73;14.45;10.64
50587;PMS7003;70782;50.514;30.816;2023-12-20T04:06:37;16.73;16.09;10.64
50587;PMS7003;70782;50.514;30.816;2023-12-20T04:07:40;13.91;13.00;9.73
50587;PMS7003;70782;50.514;30.816;2023-12-20T04:08:43;12.60;12.60;7.80
50587;PMS7003;70782;50.514;30.816;2023-12-20T04:09:45;13.20;11.90;8.80
50587;PMS7003;70782;50.514;30.816;2023-12-20T04:10:47;13.50;13.50;9.40
50587;PMS7003;70782;50.514;30.816;2023-12-20T04:11:50;14.00;14.00;10.80
50587;PMS7003;70782;50.514;30.816;2023-12-20T04:12:53;16.30;14.10;9.50
50587;PMS7003;70782;50.514;30.816;2023-12-20T04:13:55;14.40;12.60;9.50
50587;PMS7003;70782;50.514;30.816;2023-12-20T04:14:58;14.10;13.00;8.40
50587;PMS7003;70782;50.514;30.816;2023-12-20T04:16:01;12.20;12.10;8.90
50587;PMS7003;70782;50.514;30.816;2023-12-20T04:17:03;16.70;15.60;10.90
50587;PMS7003;70782;50.514;30.816;2023-12-20T04:18:05;14.50;12.40;9.40
50587;PMS7003;70782;50.514;30.816;2023-12-20T04:19:08;14.20;13.20;9.00
50587;PMS7003;70782;50.514;30.816;2023-12-20T04:20:10;13.50;13.40;10.30
50587;PMS7003;70782;50.514;30.816;2023-12-20T04:21:13;15.80;13.90;8.90
50587;PMS7003;70782;50.514;30.816;2023-12-20T04:22:16;13.50;13.40;8.70
50587;PMS7003;70782;50.514;30.816;2023-12-20T04:23:19;13.00;11.80;7.50
50587;PMS7003;70782;50.514;30.816;2023-12-20T04:24:22;12.90;12.10;9.30
50587;PMS7003;70782;50.514;30.816;2023-12-20T04:25:24;14.80;14.20;9.90
50587;PMS7003;70782;50.514;30.816;2023-12-20T04:26:27;16.36;14.36;11.18
50587;PMS7003;70782;50.514;30.816;2023-12-20T04:27:29;14.70;14.40;9.30
50587;PMS7003;70782;50.514;30.816;2023-12-20T04:28:31;19.64;18.45;12.73
50587;PMS7003;70782;50.514;30.816;2023-12-20T04:29:34;15.40;15.10;10.60
50587;PMS7003;70782;50.514;30.816;2023-12-20T04:30:36;12.60;12.30;9.40
50587;PMS7003;70782;50.514;30.816;2023-12-20T04:31:39;17.20;17.20;10.90
50587;PMS7003;70782;50.514;30.816;2023-12-20T04:32:42;16.27;15.45;11.36
50587;PMS7003;70782;50.514;30.816;2023-12-20T04:33:44;18.20;16.80;10.30
50587;PMS7003;70782;50.514;30.816;2023-12-20T04:34:47;18.00;16.90;12.20
50587;PMS7003;70782;50.514;30.816;2023-12-20T04:35:49;16.20;14.70;11.00
50587;PMS7003;70782;50.514;30.816;2023-12-20T04:36:52;15.70;15.60;11.80
50587;PMS7003;70782;50.514;30.816;2023-12-20T04:37:54;11.50;11.10;7.40
50587;PMS7003;70782;50.514;30.816;2023-12-20T04:38:57;16.70;14.70;11.00
50587;PMS7003;70782;50.514;30.816;2023-12-20T04:39:59;13.10;11.20;9.00
50587;PMS7003;70782;50.514;30.816;2023-12-20T04:41:02;15.80;14.70;10.20
50587;PMS7003;70782;50.514;30.816;2023-12-20T04:42:04;14.60;14.00;9.80
50587;PMS7003;70782;50.514;30.816;2023-12-20T04:43:07;15.80;15.00;10.10
50587;PMS7003;70782;50.514;30.816;2023-12-20T04:44:09;16.30;13.00;9.70
50587;PMS7003;70782;50.514;30.816;2023-12-20T04:45:12;14.80;12.40;8.10
50587;PMS7003;70782;50.514;30.816;2023-12-20T04:46:15;15.50;14.90;9.80
50587;PMS7003;70782;50.514;30.816;2023-12-20T04:47:17;17.40;14.80;10.80
50587;PMS7003;70782;50.514;30.816;2023-12-20T04:48:19;16.30;16.00;12.30
50587;PMS7003;70782;50.514;30.816;2023-12-20T04:49:22;16.00;14.90;10.80
50587;PMS7003;70782;50.514;30.816;2023-12-20T04:50:26;14.50;14.50;10.20
50587;PMS7003;70782;50.514;30.816;2023-12-20T04:51:28;16.90;15.80;10.40
50587;PMS7003;70782;50.514;30.816;2023-12-20T04:52:31;17.70;14.70;8.70
50587;PMS7003;70782;50.514;30.816;2023-12-20T04:53:33;16.50;14.00;10.10
50587;PMS7003;70782;50.514;30.816;2023-12-20T04:54:36;17.70;15.10;9.80
50587;PMS7003;70782;50.514;30.816;2023-12-20T04:55:38;14.80;13.10;9.40
50587;PMS7003;70782;50.514;30.816;2023-12-20T04:56:41;15.40;15.40;11.00
50587;PMS7003;70782;50.514;30.816;2023-12-20T04:57:43;16.60;14.80;10.90
50587;PMS7003;70782;50.514;30.816;2023-12-20T04:58:46;13.36;13.00;9.82
50587;PMS7003;70782;50.514;30.816;2023-12-20T04:59:48;15.20;14.60;11.10
50587;PMS7003;70782;50.514;30.816;2023-12-20T05:00:51;17.50;15.60;11.20
50587;PMS7003;70782;50.514;30.816;2023-12-20T05:01:54;17.90;16.10;12.40
50587;PMS7003;70782;50.514;30.816;2023-12-20T05:02:57;19.40;19.20;13.70
50587;PMS7003;70782;50.514;30.816;2023-12-20T05:03:59;16.80;16.40;12.30
50587;PMS7003;70782;50.514;30.816;2023-12-20T05:05:02;16.60;15.80;11.30
50587;PMS7003;70782;50.514;30.816;2023-12-20T05:06:05;17.40;16.90;11.00
50587;PMS7003;70782;50.514;30.816;2023-12-20T05:07:07;17.10;16.90;12.70
50587;PMS7003;70782;50.514;30.816;2023-12-20T05:08:09;17.70;17.30;11.60
50587;PMS7003;70782;50.514;30.816;2023-12-20T05:09:12;20.00;18.00;12.20
50587;PMS7003;70782;50.514;30.816;2023-12-20T05:10:16;19.90;19.60;13.10
50587;PMS7003;70782;50.514;30.816;2023-12-20T05:11:18;19.80;17.70;13.20
50587;PMS7003;70782;50.514;30.816;2023-12-20T05:12:21;22.30;19.40;13.80
50587;PMS7003;70782;50.514;30.816;2023-12-20T05:13:23;19.30;18.00;13.70
50587;PMS7003;70782;50.514;30.816;2023-12-20T05:14:27;21.20;18.70;13.40
50587;PMS7003;70782;50.514;30.816;2023-12-20T05:15:30;22.80;22.10;14.60
50587;PMS7003;70782;50.514;30.816;2023-12-20T05:16:32;31.80;29.70;18.80
50587;PMS7003;70782;50.514;30.816;2023-12-20T05:17:34;33.90;31.50;19.50
50587;PMS7003;70782;50.514;30.816;2023-12-20T05:18:37;30.30;26.80;18.50
50587;PMS7003;70782;50.514;30.816;2023-12-20T05:19:40;26.40;26.10;17.00
50587;PMS7003;70782;50.514;30.816;2023-12-20T05:20:42;25.80;23.70;17.80
50587;PMS7003;70782;50.514;30.816;2023-12-20T05:21:45;27.00;24.10;17.20
50587;PMS7003;70782;50.514;30.816;2023-12-20T05:22:47;27.20;24.20;16.10
50587;PMS7003;70782;50.514;30.816;2023-12-20T05:23:50;31.30;27.70;18.50
50587;PMS7003;70782;50.514;30.816;2023-12-20T05:24:52;28.20;25.50;16.60
50587;PMS7003;70782;50.514;30.816;2023-12-20T05:25:55;75.90;63.20;37.40
50587;PMS7003;70782;50.514;30.816;2023-12-20T05:26:57;109.40;101.10;58.00
50587;PMS7003;70782;50.514;30.816;2023-12-20T05:28:00;94.90;90.00;54.10
50587;PMS7003;70782;50.514;30.816;2023-12-20T05:29:02;77.20;62.90;38.60
50587;PMS7003;70782;50.514;30.816;2023-12-20T05:30:05;57.90;45.90;29.90
50587;PMS7003;70782;50.514;30.816;2023-12-20T05:31:09;44.90;36.50;24.20
50587;PMS7003;70782;50.514;30.816;2023-12-20T05:32:11;43.80;35.70;23.40
50587;PMS7003;70782;50.514;30.816;2023-12-20T05:33:14;37.70;32.70;21.30
50587;PMS7003;70782;50.514;30.816;2023-12-20T05:34:17;46.09;38.55;24.73
50587;PMS7003;70782;50.514;30.816;2023-12-20T05:35:19;50.40;41.40;25.70
50587;PMS7003;70782;50.514;30.816;2023-12-20T05:36:23;76.10;59.50;36.40
50587;PMS7003;70782;50.514;30.816;2023-12-20T05:37:26;62.20;50.70;31.20
50587;PMS7003;70782;50.514;30.816;2023-12-20T05:38:28;59.10;48.10;30.30
50587;PMS7003;70782;50.514;30.816;2023-12-20T05:39:30;64.60;50.40;32.00
50587;PMS7003;70782;50.514;30.816;2023-12-20T05:40:33;59.80;49.00;30.40
50587;PMS7003;70782;50.514;30.816;2023-12-20T05:41:35;46.60;39.90;24.80
50587;PMS7003;70782;50.514;30.816;2023-12-20T05:42:37;49.90;39.70;25.40
50587;PMS7003;70782;50.514;30.816;2023-12-20T05:43:40;41.30;37.10;24.30
50587;PMS7003;70782;50.514;30.816;2023-12-20T05:44:42;41.90;35.00;21.80
50587;PMS7003;70782;50.514;30.816;2023-12-20T05:45:45;42.80;35.90;22.00
50587;PMS7003;70782;50.514;30.816;2023-12-20T05:46:47;39.60;35.30;22.90
50587;PMS7003;70782;50.514;30.816;2023-12-20T05:47:50;40.70;36.30;24.70
50587;PMS7003;70782;50.514;30.816;2023-12-20T05:48:52;50.00;40.50;26.60
50587;PMS7003;70782;50.514;30.816;2023-12-20T05:49:55;53.30;44.70;29.60
50587;PMS7003;70782;50.514;30.816;2023-12-20T05:50:58;72.60;56.30;36.10